createdAt,value
2022-10-23T00:02:06.795Z,27.50
2022-10-23T00:05:15.750Z,28.73
2022-10-23T00:08:27.203Z,26.48
2022-10-23T00:11:40.882Z,25.00
2022-10-23T00:14:49.259Z,26.08
2022-10-23T00:17:57.756Z,26.50
2022-10-23T00:21:15.680Z,22.67
2022-10-23T00:24:24.141Z,27.33
2022-10-23T00:27:32.754Z,25.83
2022-10-23T00:30:41.116Z,25.25
2022-10-23T00:33:49.791Z,23.17
2022-10-23T00:36:58.215Z,25.50
2022-10-23T00:40:06.741Z,24.20
2022-10-23T00:43:30.720Z,24.10
2022-10-23T00:46:32.830Z,23.70
2022-10-23T00:49:50.720Z,22.35
2022-10-23T00:53:02.057Z,24.33
2022-10-23T00:56:17.743Z,31.75
2022-10-23T00:59:19.384Z,25.65
2022-10-23T01:02:33.813Z,27.05
2022-10-23T01:09:15.704Z,26.77
2022-10-23T01:12:43.737Z,28.80
2022-10-23T01:16:03.706Z,26.40
2022-10-23T01:19:33.687Z,27.30
2022-10-23T01:23:00.787Z,27.87
2022-10-23T01:26:32.704Z,29.73
2022-10-23T01:29:46.020Z,25.45
2022-10-23T01:33:04.689Z,24.85
2022-10-23T01:36:12.318Z,27.17
2022-10-23T01:39:39.707Z,27.67
2022-10-23T01:42:52.746Z,26.50
2022-10-23T01:46:07.732Z,27.02
2022-10-23T01:49:17.720Z,28.80
2022-10-23T01:52:32.689Z,27.00
2022-10-23T01:55:43.987Z,27.45
2022-10-23T01:59:00.680Z,25.83
2022-10-23T02:02:04.613Z,29.77
2022-10-23T02:05:28.873Z,27.30
2022-10-23T02:08:37.517Z,25.73
2022-10-23T02:12:01.705Z,29.90
2022-10-23T02:15:22.673Z,27.13
2022-10-23T02:18:46.742Z,28.00
2022-10-23T02:22:12.733Z,26.48
2022-10-23T02:25:26.728Z,29.90
2022-10-23T02:28:49.703Z,27.02
2022-10-23T02:31:51.383Z,26.77
2022-10-23T02:35:05.768Z,29.30
2022-10-23T02:38:27.532Z,30.50
2022-10-23T02:42:08.702Z,32.33
2022-10-23T02:45:35.766Z,31.42
2022-10-23T02:49:14.720Z,28.40
2022-10-23T02:52:48.031Z,25.73
2022-10-23T02:56:34.514Z,28.10
2022-10-23T02:59:44.726Z,28.98
2022-10-23T03:03:05.128Z,28.80
2022-10-23T03:06:07.670Z,27.53
2022-10-23T03:09:22.756Z,29.25
2022-10-23T03:12:30.783Z,26.77
2022-10-23T03:15:39.327Z,26.00
2022-10-23T03:18:47.738Z,29.37
2022-10-23T03:21:56.300Z,27.60
2022-10-23T03:25:13.904Z,25.62
2022-10-23T03:28:23.328Z,26.92
2022-10-23T03:31:31.750Z,25.35
2022-10-23T03:34:46.736Z,25.55
2022-10-23T03:37:48.410Z,28.87
2022-10-23T03:41:02.715Z,28.38
2022-10-23T03:44:10.797Z,26.17
2022-10-23T03:47:26.737Z,25.65
2022-10-23T03:50:34.742Z,29.52
2022-10-23T03:53:43.284Z,27.10
2022-10-23T03:56:55.015Z,25.52
2022-10-23T04:00:08.137Z,29.80
2022-10-23T04:03:15.795Z,26.20
2022-10-23T04:06:24.583Z,26.25
2022-10-23T04:09:39.746Z,29.13
2022-10-23T04:12:47.744Z,28.75
2022-10-23T04:16:02.834Z,29.55
2022-10-23T04:19:04.391Z,23.98
2022-10-23T04:22:18.746Z,27.77
2022-10-23T04:25:26.782Z,25.70
2022-10-23T04:28:38.110Z,27.52
2022-10-23T04:31:52.743Z,26.58
2022-10-23T04:35:07.772Z,26.70
2022-10-23T04:38:09.413Z,25.50
2022-10-23T04:41:23.767Z,23.30
2022-10-23T04:44:25.340Z,27.00
2022-10-23T04:47:40.054Z,26.10
2022-10-23T04:50:58.844Z,28.15
2022-10-23T04:54:13.728Z,26.23
2022-10-23T04:57:15.372Z,27.73
2022-10-23T05:00:30.831Z,28.48
2022-10-23T05:03:38.811Z,23.92
2022-10-23T05:06:47.272Z,27.20
2022-10-23T05:09:55.753Z,25.50
2022-10-23T05:13:10.794Z,24.27
2022-10-23T05:16:33.770Z,25.70
2022-10-23T05:19:52.812Z,29.63
2022-10-23T05:22:56.427Z,28.10
2022-10-23T05:26:11.760Z,26.52
2022-10-23T05:29:20.586Z,25.77
2022-10-23T05:32:30.756Z,26.80
2022-10-23T05:35:41.835Z,25.62
2022-10-23T05:38:56.773Z,26.90
2022-10-23T05:42:11.771Z,28.52
2022-10-23T05:45:13.367Z,30.93
2022-10-23T05:48:34.607Z,30.37
2022-10-23T05:51:57.022Z,29.02
2022-10-23T05:55:12.096Z,30.05
2022-10-23T05:58:13.723Z,32.08
2022-10-23T06:01:29.007Z,30.30
2022-10-23T06:04:39.070Z,31.92
2022-10-23T06:07:46.843Z,33.13
2022-10-23T06:10:55.296Z,33.30
2022-10-23T06:14:07.763Z,27.35
2022-10-23T06:17:22.819Z,29.87
2022-10-23T06:20:30.868Z,25.30
2022-10-23T06:23:41.043Z,26.12
2022-10-23T06:26:56.792Z,25.10
2022-10-23T06:29:58.521Z,23.17
2022-10-23T06:33:12.831Z,25.33
2022-10-23T06:36:28.862Z,24.60
2022-10-23T06:39:43.788Z,24.15
2022-10-23T06:42:51.783Z,24.37
2022-10-23T06:46:07.812Z,26.10
2022-10-23T06:49:09.448Z,23.13
2022-10-23T06:52:45.992Z,24.60
2022-10-23T06:55:55.957Z,30.73
2022-10-23T07:02:33.970Z,25.88
2022-10-23T07:05:42.852Z,23.53
2022-10-23T07:08:57.779Z,26.83
2022-10-23T07:11:59.327Z,23.40
2022-10-23T07:15:14.801Z,18.90
2022-10-23T07:18:16.841Z,20.12
2022-10-23T07:21:37.797Z,18.20
2022-10-23T07:24:39.576Z,19.05
2022-10-23T07:27:53.799Z,19.67
2022-10-23T07:30:58.287Z,17.12
2022-10-23T07:34:13.078Z,19.23
2022-10-23T07:37:17.657Z,16.43
2022-10-23T07:40:33.847Z,15.75
2022-10-23T07:43:41.796Z,17.10
2022-10-23T07:47:07.828Z,18.20
2022-10-23T07:50:29.626Z,19.45
2022-10-23T07:53:38.480Z,17.30
2022-10-23T07:56:46.815Z,16.62
2022-10-23T07:59:55.903Z,15.70
2022-10-23T08:03:05.144Z,15.43
2022-10-23T08:06:33.682Z,13.95
2022-10-23T08:09:49.050Z,13.83
2022-10-23T08:12:50.943Z,15.38
2022-10-23T08:16:05.795Z,15.77
2022-10-23T08:19:14.819Z,14.90
2022-10-23T08:22:23.320Z,14.75
2022-10-23T08:28:47.821Z,13.20
2022-10-23T08:31:49.578Z,14.05
2022-10-23T08:35:03.795Z,12.18
2022-10-23T08:38:12.867Z,13.70
2022-10-23T08:41:53.775Z,14.57
2022-10-23T08:45:18.860Z,13.62
2022-10-23T08:48:54.940Z,11.75
2022-10-23T08:52:15.774Z,13.43
2022-10-23T08:55:37.048Z,11.90
2022-10-23T08:59:33.808Z,12.93
2022-10-23T09:02:46.225Z,14.55
2022-10-23T09:06:13.869Z,15.55
2022-10-23T09:09:47.001Z,14.07
2022-10-23T09:13:11.867Z,17.48
2022-10-23T09:16:54.812Z,16.93
2022-10-23T09:20:24.818Z,15.05
2022-10-23T09:23:26.494Z,13.35
2022-10-23T09:26:40.914Z,13.60
2022-10-23T09:30:08.089Z,13.88
2022-10-23T09:33:36.584Z,14.87
2022-10-23T09:36:57.751Z,13.50
2022-10-23T09:40:28.111Z,14.38
2022-10-23T09:43:41.986Z,12.75
2022-10-23T09:47:00.864Z,14.32
2022-10-23T09:50:02.855Z,12.03
2022-10-23T09:53:46.912Z,12.07
2022-10-23T09:57:03.915Z,16.98
2022-10-23T10:00:18.806Z,16.55
2022-10-23T10:03:36.947Z,19.05
2022-10-23T10:06:57.474Z,19.23
2022-10-23T10:10:06.144Z,18.30
2022-10-23T10:13:34.184Z,19.17
2022-10-23T10:16:56.859Z,20.55
2022-10-23T10:20:29.837Z,23.12
2022-10-23T10:23:46.664Z,21.67
2022-10-23T10:27:30.878Z,21.75
2022-10-23T10:30:57.631Z,23.73
2022-10-23T10:34:22.904Z,24.27
2022-10-23T10:37:50.906Z,20.75
2022-10-23T10:41:25.916Z,23.90
2022-10-23T10:45:07.845Z,25.95
2022-10-23T10:48:53.928Z,22.27
2022-10-23T10:52:37.836Z,22.90
2022-10-23T10:56:11.822Z,24.80
2022-10-23T10:59:33.840Z,27.67
2022-10-23T11:02:57.816Z,28.10
2022-10-23T11:06:22.922Z,25.67
2022-10-23T11:09:43.033Z,26.75
2022-10-23T11:12:52.850Z,27.87
2022-10-23T11:16:08.816Z,25.23
2022-10-23T11:19:53.991Z,23.20
2022-10-23T11:23:18.427Z,23.10
2022-10-23T11:27:07.900Z,22.65
2022-10-23T11:30:41.876Z,18.98
2022-10-23T11:34:10.859Z,20.37
2022-10-23T11:37:37.943Z,19.50
2022-10-23T11:41:33.155Z,21.60
2022-10-23T11:44:56.772Z,18.12
2022-10-23T11:48:37.199Z,16.67
2022-10-23T11:51:46.970Z,20.20
2022-10-23T11:55:22.915Z,22.23
2022-10-23T11:59:06.136Z,19.12
2022-10-23T12:02:35.400Z,21.23
2022-10-23T12:09:28.937Z,27.63
2022-10-23T12:12:38.780Z,28.00
2022-10-23T12:16:00.988Z,23.48
2022-10-23T12:19:22.442Z,24.33
2022-10-23T12:23:01.124Z,19.65
2022-10-23T12:26:42.004Z,20.40
2022-10-23T12:30:11.090Z,20.80
2022-10-23T12:33:39.911Z,18.25
2022-10-23T12:37:14.006Z,17.25
2022-10-23T12:40:35.891Z,18.42
2022-10-23T12:44:01.958Z,20.03
2022-10-23T12:47:23.916Z,20.02
2022-10-23T12:50:29.768Z,16.58
2022-10-23T12:53:44.947Z,16.45
2022-10-23T12:56:47.464Z,16.87
2022-10-23T13:00:06.944Z,15.90
2022-10-23T13:03:17.960Z,16.70
2022-10-23T13:06:50.661Z,17.48
2022-10-23T13:09:53.547Z,19.48
2022-10-23T13:13:13.104Z,16.92
2022-10-23T13:16:17.548Z,14.87
2022-10-23T13:19:32.895Z,14.35
2022-10-23T13:22:34.607Z,13.23
2022-10-23T13:25:48.919Z,13.77
2022-10-23T13:28:57.941Z,14.07
2022-10-23T13:32:11.495Z,12.50
2022-10-23T13:35:28.919Z,14.48
2022-10-23T13:38:39.278Z,12.13
2022-10-23T13:41:50.961Z,12.65
2022-10-23T13:45:05.899Z,12.48
2022-10-23T13:48:14.613Z,12.60
2022-10-23T13:51:29.083Z,12.13
2022-10-23T13:54:37.656Z,12.57
2022-10-23T13:57:46.146Z,12.95
2022-10-23T14:01:01.054Z,11.60
2022-10-23T14:04:05.382Z,13.53
2022-10-23T14:07:19.902Z,15.65
2022-10-23T14:10:24.533Z,13.77
2022-10-23T14:13:44.980Z,14.77
2022-10-23T14:16:59.975Z,13.25
2022-10-23T14:20:19.001Z,13.87
2022-10-23T14:23:28.170Z,13.85
2022-10-23T14:26:37.703Z,15.52
2022-10-23T14:29:46.920Z,13.52
2022-10-23T14:33:01.899Z,14.35
2022-10-23T14:39:28.718Z,15.13
2022-10-23T14:42:36.979Z,14.23
2022-10-23T14:45:52.312Z,14.93
2022-10-23T14:49:09.779Z,14.25
2022-10-23T14:52:17.951Z,23.43
2022-10-23T14:55:28.087Z,14.38
2022-10-23T14:58:37.224Z,15.30
2022-10-23T15:01:48.221Z,17.73
2022-10-23T15:05:09.928Z,15.73
2022-10-23T15:08:25.948Z,18.10
2022-10-23T15:11:35.096Z,16.15
2022-10-23T15:14:43.935Z,19.60
2022-10-23T15:17:52.684Z,17.12
2022-10-23T15:21:00.972Z,16.23
2022-10-23T15:24:09.868Z,16.10
2022-10-23T15:27:19.196Z,18.52
2022-10-23T15:30:28.311Z,16.17
2022-10-23T15:33:37.927Z,16.87
2022-10-23T15:36:47.527Z,16.52
2022-10-23T15:39:58.365Z,18.40
2022-10-23T15:43:23.947Z,17.08
2022-10-23T15:46:26.635Z,23.55
2022-10-23T15:49:42.009Z,21.90
2022-10-23T15:52:44.762Z,24.52
2022-10-23T15:56:11.205Z,20.03
2022-10-23T15:59:13.705Z,20.83
2022-10-23T16:02:28.040Z,20.37
2022-10-23T16:05:30.271Z,18.10
2022-10-23T16:08:46.086Z,18.10
2022-10-23T16:11:54.935Z,17.50
2022-10-23T16:15:13.917Z,17.20
2022-10-23T16:18:21.930Z,15.13
2022-10-23T16:21:33.855Z,15.65
2022-10-23T16:24:41.928Z,13.75
2022-10-23T16:27:58.986Z,14.63
2022-10-23T16:31:02.303Z,15.32
2022-10-23T16:34:17.965Z,14.65
2022-10-23T16:37:26.983Z,14.25
2022-10-23T16:40:48.935Z,14.40
2022-10-23T16:44:05.979Z,17.67
2022-10-23T16:47:40.959Z,17.40
2022-10-23T16:50:43.200Z,11.55
2022-10-23T16:54:00.011Z,8.80
2022-10-23T16:57:08.968Z,9.18
2022-10-23T17:00:24.942Z,7.23
2022-10-23T17:03:33.934Z,6.05
2022-10-23T17:06:42.713Z,7.50
2022-10-23T17:09:52.003Z,8.27
2022-10-23T17:13:06.987Z,7.72
2022-10-23T17:16:13.523Z,5.23
2022-10-23T17:19:44.614Z,6.62
2022-10-23T17:22:54.989Z,7.10
2022-10-23T17:26:07.022Z,6.47
2022-10-23T17:29:18.247Z,6.68
2022-10-23T17:32:34.188Z,7.63
2022-10-23T17:35:43.008Z,7.10
2022-10-23T17:39:20.992Z,6.20
2022-10-23T17:42:43.454Z,7.32
2022-10-23T17:45:45.984Z,6.47
2022-10-23T17:49:03.975Z,6.93
2022-10-23T17:52:13.230Z,8.88
2022-10-23T17:55:28.946Z,7.80
2022-10-23T17:58:32.661Z,7.05
2022-10-23T18:01:48.560Z,7.10
2022-10-23T18:04:57.988Z,7.53
2022-10-23T18:08:12.978Z,9.20
2022-10-23T18:11:25.975Z,7.22
2022-10-23T18:14:42.964Z,6.72
2022-10-23T18:17:45.221Z,8.45
2022-10-23T18:21:00.044Z,10.57
2022-10-23T18:24:10.173Z,8.05
2022-10-23T18:27:25.043Z,9.18
2022-10-23T18:30:27.713Z,9.48
2022-10-23T18:33:42.112Z,8.45
2022-10-23T18:36:51.030Z,8.90
2022-10-23T18:40:02.947Z,9.32
2022-10-23T18:43:42.742Z,9.88
2022-10-23T18:46:52.108Z,9.98
2022-10-23T18:50:01.048Z,10.52
2022-10-23T18:53:16.991Z,9.97
2022-10-23T18:56:22.645Z,10.30
2022-10-23T18:59:45.304Z,10.47
2022-10-23T19:02:53.985Z,9.38
2022-10-23T19:06:13.998Z,10.32
2022-10-23T19:09:29.099Z,10.15
2022-10-23T19:13:01.991Z,10.80
2022-10-23T19:16:07.076Z,12.30
2022-10-23T19:19:28.045Z,10.00
2022-10-23T19:22:31.820Z,10.90
2022-10-23T19:25:47.049Z,10.90
2022-10-23T19:28:49.186Z,10.87
2022-10-23T19:32:05.001Z,10.30
2022-10-23T19:35:07.792Z,10.07
2022-10-23T19:38:22.068Z,9.88
2022-10-23T19:41:24.320Z,11.43
2022-10-23T19:44:59.240Z,10.80
2022-10-23T19:48:08.223Z,12.60
2022-10-23T19:51:18.274Z,11.63
2022-10-23T19:54:28.040Z,12.65
2022-10-23T19:57:38.234Z,11.30
2022-10-23T20:00:47.076Z,12.00
2022-10-23T20:04:03.214Z,12.07
2022-10-23T20:07:23.076Z,12.00
2022-10-23T20:10:38.163Z,13.13
2022-10-23T20:13:48.060Z,13.93
2022-10-23T20:16:57.158Z,11.57
2022-10-23T20:20:07.302Z,11.83
2022-10-23T20:23:35.480Z,11.30
2022-10-23T20:26:49.035Z,11.02
2022-10-23T20:30:04.039Z,12.13
2022-10-23T20:33:06.289Z,11.90
2022-10-23T20:36:37.953Z,15.43
2022-10-23T20:39:48.055Z,12.70
2022-10-23T20:43:10.082Z,11.48
2022-10-23T20:46:26.145Z,12.50
2022-10-23T20:49:35.184Z,12.00
2022-10-23T20:52:43.036Z,15.03
2022-10-23T20:55:58.287Z,14.55
2022-10-23T20:59:10.282Z,13.07
2022-10-23T21:02:18.881Z,17.17
2022-10-23T21:05:27.044Z,13.83
2022-10-23T21:08:35.990Z,14.77
2022-10-23T21:11:44.088Z,15.20
2022-10-23T21:15:00.033Z,13.75
2022-10-23T21:18:19.343Z,14.77
2022-10-23T21:21:38.044Z,13.67
2022-10-23T21:24:46.758Z,14.67
2022-10-23T21:28:01.047Z,14.05
2022-10-23T21:31:17.250Z,14.60
2022-10-23T21:34:33.059Z,15.75
2022-10-23T21:37:35.237Z,14.10
2022-10-23T21:40:50.232Z,13.47
2022-10-23T21:44:05.943Z,15.32
2022-10-23T21:47:14.052Z,15.93
2022-10-23T21:50:22.571Z,12.93
2022-10-23T21:53:31.047Z,13.27
2022-10-23T21:56:47.319Z,15.17
2022-10-23T21:59:55.068Z,14.93
2022-10-23T22:03:03.527Z,13.82
2022-10-23T22:06:12.062Z,15.48
2022-10-23T22:09:28.100Z,14.50
2022-10-23T22:12:36.264Z,14.10
2022-10-23T22:19:04.056Z,14.93
2022-10-23T22:22:06.526Z,15.73
2022-10-23T22:25:21.123Z,13.67
2022-10-23T22:28:36.047Z,15.87
2022-10-23T22:31:39.148Z,13.90
2022-10-23T22:34:54.074Z,14.43
2022-10-23T22:37:55.671Z,16.33
2022-10-23T22:41:11.105Z,16.13
2022-10-23T22:44:26.088Z,16.70
2022-10-23T22:47:34.687Z,18.05
2022-10-23T22:50:43.086Z,18.62
2022-10-23T22:53:51.809Z,19.37
2022-10-23T22:57:00.148Z,17.57
2022-10-23T23:00:15.142Z,20.30
2022-10-23T23:03:23.129Z,19.27
2022-10-23T23:06:40.072Z,20.58
2022-10-23T23:09:43.893Z,18.48
2022-10-23T23:12:58.080Z,18.53
2022-10-23T23:16:00.228Z,20.63
2022-10-23T23:19:18.067Z,21.67
2022-10-23T23:22:19.715Z,21.05
2022-10-23T23:25:35.079Z,20.85
2022-10-23T23:28:36.912Z,20.90
2022-10-23T23:31:51.103Z,21.53
2022-10-23T23:34:59.098Z,23.80
2022-10-23T23:38:07.880Z,21.92
2022-10-23T23:41:20.107Z,19.00
2022-10-23T23:44:50.398Z,18.80
2022-10-23T23:48:17.080Z,21.67
2022-10-23T23:51:24.200Z,19.87
2022-10-23T23:54:39.105Z,19.12
2022-10-23T23:57:40.723Z,19.87
